Weather at Rurutu Airport

Public forecast

Using degrees Celsius for public forecast. Weather courtesy of forecast.io.

Closest aviation weather report (METAR) to Rurutu Airport

Report is more than 2 hours old.

Closest report is Mauke Airport, 362.0 nm (670.5 km) WNW. Retrieved 2021/10/25 14:00 UTC (3 hours ago):

NCMK 251400Z AUTO 13008KT //// ////// 24/18 Q1012

Closest aviation forecast (TAF) to Rurutu Airport

Closest forecast is Rarotonga International Airport, 476.4 nm (882.3 km) W. Retrieved 2021/10/25 12:18 UTC (5 hours ago):

TAF TAF NCRG 251114Z 2512/2612 11008KT 9999 BKN080 OVC100 PROB30 TEMPO 2512/2518 10015G25KT